createdAt,value
2017-11-07T00:02:24.659Z,26.92
2017-11-07T00:04:53.022Z,24.40
2017-11-07T00:07:20.622Z,28.10
2017-11-07T00:09:48.243Z,28.48
2017-11-07T00:12:15.869Z,25.27
2017-11-07T00:14:43.995Z,28.20
2017-11-07T00:17:11.575Z,27.67
2017-11-07T00:19:39.200Z,32.83
2017-11-07T00:22:06.790Z,35.75
2017-11-07T00:24:34.408Z,29.10
2017-11-07T00:27:02.035Z,30.67
2017-11-07T00:29:29.634Z,35.28
2017-11-07T00:31:57.505Z,32.33
2017-11-07T00:34:25.072Z,32.17
2017-11-07T00:36:52.648Z,36.65
2017-11-07T00:39:21.033Z,33.90
2017-11-07T00:41:48.634Z,37.65
2017-11-07T00:44:16.238Z,39.22
2017-11-07T00:46:44.582Z,38.20
2017-11-07T00:49:12.708Z,36.92
2017-11-07T00:51:40.297Z,32.55
2017-11-07T00:54:07.865Z,32.28
2017-11-07T00:56:35.467Z,32.80
2017-11-07T00:59:03.883Z,37.72
2017-11-07T01:01:31.488Z,29.77
2017-11-07T01:03:59.078Z,35.30
2017-11-07T01:06:27.696Z,31.25
2017-11-07T01:08:55.609Z,28.40
2017-11-07T01:11:24.077Z,40.38
2017-11-07T01:13:51.677Z,31.48
2017-11-07T01:16:19.273Z,29.77
2017-11-07T01:18:46.915Z,32.55
2017-11-07T01:21:14.490Z,26.50
2017-11-07T01:23:42.353Z,31.73
2017-11-07T01:26:09.938Z,32.17
2017-11-07T01:28:37.551Z,25.98
2017-11-07T01:31:05.235Z,30.60
2017-11-07T01:33:32.823Z,41.33
2017-11-07T01:36:00.458Z,31.23
2017-11-07T01:38:28.054Z,34.30
2017-11-07T01:40:55.910Z,35.90
2017-11-07T01:43:23.501Z,29.02
2017-11-07T01:45:51.083Z,28.52
2017-11-07T01:48:18.697Z,26.90
2017-11-07T01:50:46.289Z,33.17
2017-11-07T01:53:14.214Z,33.35
2017-11-07T01:55:41.801Z,27.60
2017-11-07T01:58:10.143Z,32.15
2017-11-07T02:00:37.729Z,27.23
2017-11-07T02:03:06.067Z,39.80
2017-11-07T02:05:33.729Z,26.30
2017-11-07T02:08:01.319Z,35.03
2017-11-07T02:10:29.973Z,32.28
2017-11-07T02:12:57.555Z,27.60
2017-11-07T02:15:25.132Z,29.95
2017-11-07T02:17:53.510Z,30.90
2017-11-07T02:20:21.855Z,42.83
2017-11-07T02:22:50.210Z,31.75
2017-11-07T02:25:17.858Z,31.45
2017-11-07T02:27:46.015Z,35.70
2017-11-07T02:30:14.358Z,45.35
2017-11-07T02:32:41.913Z,51.08
2017-11-07T02:35:10.273Z,46.15
2017-11-07T02:37:37.878Z,39.33
2017-11-07T02:40:06.513Z,47.62
2017-11-07T02:42:34.110Z,56.65
2017-11-07T02:45:01.694Z,55.83
2017-11-07T02:47:29.422Z,45.03
2017-11-07T02:49:56.999Z,46.92
2017-11-07T02:52:25.387Z,54.13
2017-11-07T02:54:53.739Z,56.45
2017-11-07T02:57:21.599Z,47.33
2017-11-07T02:59:49.183Z,53.58
2017-11-07T03:02:16.798Z,52.00
2017-11-07T03:04:44.400Z,37.28
2017-11-07T03:07:12.803Z,40.45
2017-11-07T03:09:40.927Z,48.97
2017-11-07T03:12:08.558Z,40.40
2017-11-07T03:14:36.142Z,46.58
2017-11-07T03:17:03.750Z,51.70
2017-11-07T03:19:32.098Z,42.17
2017-11-07T03:21:59.947Z,42.50
2017-11-07T03:24:27.552Z,48.22
2017-11-07T03:26:55.170Z,35.88
2017-11-07T03:29:22.757Z,51.60
2017-11-07T03:31:51.143Z,43.30
2017-11-07T03:34:19.775Z,43.78
2017-11-07T03:36:47.373Z,44.97
2017-11-07T03:39:14.977Z,41.25
2017-11-07T03:41:42.582Z,46.60
2017-11-07T03:44:10.154Z,39.88
2017-11-07T03:46:38.094Z,49.50
2017-11-07T03:49:05.682Z,32.55
2017-11-07T03:51:34.071Z,52.65
2017-11-07T03:54:02.442Z,34.80
2017-11-07T03:56:30.805Z,36.13
2017-11-07T03:58:58.421Z,40.53
2017-11-07T04:01:25.998Z,33.10
2017-11-07T04:03:53.574Z,44.70
2017-11-07T04:06:21.209Z,40.88
2017-11-07T04:08:48.895Z,44.15
2017-11-07T04:11:16.842Z,52.90
2017-11-07T04:13:44.434Z,48.10
2017-11-07T04:16:12.050Z,41.88
2017-11-07T04:18:39.713Z,41.15
2017-11-07T04:21:07.285Z,43.28
2017-11-07T04:23:35.202Z,51.45
2017-11-07T04:26:03.127Z,52.20
2017-11-07T04:28:30.727Z,49.17
2017-11-07T04:30:59.133Z,45.72
2017-11-07T04:33:26.713Z,49.00
2017-11-07T04:35:54.601Z,41.28
2017-11-07T04:38:22.169Z,56.20
2017-11-07T04:40:49.733Z,40.40
2017-11-07T04:43:17.338Z,56.60
2017-11-07T04:45:44.978Z,44.05
2017-11-07T04:48:13.621Z,39.67
2017-11-07T04:50:41.186Z,53.33
2017-11-07T04:53:08.918Z,37.97
2017-11-07T04:55:36.649Z,39.13
2017-11-07T04:58:04.998Z,44.22
2017-11-07T05:00:32.875Z,33.35
2017-11-07T05:03:00.459Z,39.28
2017-11-07T05:05:28.313Z,40.05
2017-11-07T05:07:57.065Z,38.90
2017-11-07T05:10:24.671Z,39.88
2017-11-07T05:12:52.526Z,40.45
2017-11-07T05:15:20.900Z,33.22
2017-11-07T05:17:49.284Z,34.25
2017-11-07T05:20:16.927Z,39.20
2017-11-07T05:22:44.502Z,36.08
2017-11-07T05:25:13.141Z,35.70
2017-11-07T05:27:41.534Z,39.17
2017-11-07T05:30:09.200Z,34.28
2017-11-07T05:32:36.785Z,38.83
2017-11-07T05:35:05.135Z,30.25
2017-11-07T05:37:33.065Z,30.65
2017-11-07T05:40:00.655Z,39.20
2017-11-07T05:42:28.297Z,34.65
2017-11-07T05:44:55.906Z,37.47
2017-11-07T05:47:24.285Z,34.40
2017-11-07T05:49:53.053Z,29.75
2017-11-07T05:52:20.589Z,28.40
2017-11-07T05:54:48.170Z,28.05
2017-11-07T05:57:15.811Z,30.95
2017-11-07T05:59:43.498Z,27.15
2017-11-07T06:02:11.443Z,32.85
2017-11-07T06:04:39.021Z,30.50
2017-11-07T06:07:06.610Z,31.45
2017-11-07T06:09:34.466Z,40.95
2017-11-07T06:12:02.834Z,31.17
2017-11-07T06:14:31.459Z,34.47
2017-11-07T06:16:59.812Z,34.22
2017-11-07T06:19:27.407Z,31.40
2017-11-07T06:21:55.011Z,29.07
2017-11-07T06:24:24.222Z,38.43
2017-11-07T06:26:54.980Z,26.17
2017-11-07T06:29:22.951Z,27.53
2017-11-07T06:31:50.573Z,22.60
2017-11-07T06:34:19.014Z,29.17
2017-11-07T06:36:46.581Z,25.53
2017-11-07T06:39:14.486Z,34.43
2017-11-07T06:41:42.834Z,26.10
2017-11-07T06:44:10.414Z,29.50
2017-11-07T06:46:38.006Z,32.80
2017-11-07T06:49:05.657Z,33.97
2017-11-07T06:51:34.295Z,33.20
2017-11-07T06:54:02.227Z,32.17
2017-11-07T06:56:29.850Z,35.57
2017-11-07T06:58:57.437Z,33.07
2017-11-07T07:01:24.986Z,28.33
2017-11-07T07:03:53.634Z,31.90
2017-11-07T07:06:21.254Z,29.37
2017-11-07T07:08:48.829Z,26.00
2017-11-07T07:11:16.434Z,27.27
2017-11-07T07:13:45.840Z,25.93
2017-11-07T07:16:13.728Z,23.53
2017-11-07T07:18:42.088Z,25.93
2017-11-07T07:21:10.430Z,31.60
2017-11-07T07:23:38.268Z,27.40
2017-11-07T07:26:05.842Z,28.10
2017-11-07T07:28:33.723Z,24.13
2017-11-07T07:31:01.326Z,24.83
2017-11-07T07:33:29.678Z,20.23
2017-11-07T07:35:57.262Z,21.47
2017-11-07T07:38:25.607Z,29.03
2017-11-07T07:40:53.543Z,22.87
2017-11-07T07:43:21.136Z,22.10
2017-11-07T07:45:48.714Z,21.90
2017-11-07T07:48:16.313Z,22.60
2017-11-07T07:50:43.917Z,24.00
2017-11-07T07:53:11.845Z,23.90
2017-11-07T07:55:39.427Z,15.53
2017-11-07T07:58:07.024Z,16.13
2017-11-07T08:00:35.381Z,18.73
2017-11-07T08:03:02.972Z,17.43
2017-11-07T08:05:30.553Z,17.90
2017-11-07T08:07:58.130Z,17.83
2017-11-07T08:10:25.707Z,21.63
2017-11-07T08:12:53.321Z,23.70
2017-11-07T08:15:20.911Z,17.60
2017-11-07T08:17:48.596Z,17.23
2017-11-07T08:20:16.183Z,19.73
2017-11-07T08:22:44.527Z,14.93
2017-11-07T08:25:12.193Z,20.30
2017-11-07T08:27:39.766Z,16.60
2017-11-07T08:30:07.381Z,15.60
2017-11-07T08:32:34.995Z,17.83
2017-11-07T08:35:02.588Z,14.40
2017-11-07T08:37:30.244Z,13.90
2017-11-07T08:39:57.823Z,13.97
2017-11-07T08:42:25.412Z,18.87
2017-11-07T08:44:52.990Z,14.53
2017-11-07T08:47:20.708Z,15.93
2017-11-07T08:49:48.393Z,14.00
2017-11-07T08:52:15.960Z,13.80
2017-11-07T08:54:44.224Z,18.03
2017-11-07T08:57:12.260Z,21.07
2017-11-07T08:59:39.844Z,18.60
2017-11-07T09:02:07.436Z,17.50
2017-11-07T09:04:35.189Z,23.30
2017-11-07T09:07:03.088Z,18.53
2017-11-07T09:09:31.442Z,29.30
2017-11-07T09:11:59.394Z,18.27
2017-11-07T09:14:27.265Z,15.03
2017-11-07T09:16:54.858Z,16.87
2017-11-07T09:19:22.452Z,15.83
2017-11-07T09:21:50.025Z,14.87
2017-11-07T09:24:17.638Z,16.43
2017-11-07T09:26:46.002Z,13.63
2017-11-07T09:29:13.594Z,20.40
2017-11-07T09:31:41.182Z,15.20
2017-11-07T09:34:08.770Z,16.13
2017-11-07T09:36:36.362Z,14.40
2017-11-07T09:39:04.702Z,14.03
2017-11-07T09:41:32.552Z,14.57
2017-11-07T09:44:00.109Z,20.50
2017-11-07T09:46:27.707Z,16.33
2017-11-07T09:48:56.123Z,17.70
2017-11-07T09:51:23.760Z,18.03
2017-11-07T09:53:52.325Z,15.60
2017-11-07T09:56:20.692Z,16.77
2017-11-07T09:58:48.647Z,17.83
2017-11-07T10:01:16.238Z,14.33
2017-11-07T10:03:44.597Z,17.87
2017-11-07T10:06:12.235Z,18.37
2017-11-07T10:08:39.829Z,17.77
2017-11-07T10:11:07.798Z,20.93
2017-11-07T10:13:35.367Z,15.30
2017-11-07T10:16:03.735Z,22.60
2017-11-07T10:18:31.399Z,20.30
2017-11-07T10:20:59.783Z,14.27
2017-11-07T10:23:28.163Z,19.17
2017-11-07T10:25:56.548Z,18.77
2017-11-07T10:28:24.907Z,16.33
2017-11-07T10:30:52.507Z,17.60
2017-11-07T10:33:20.371Z,17.13
2017-11-07T10:35:48.020Z,14.70
2017-11-07T10:38:15.603Z,14.93
2017-11-07T10:40:43.172Z,20.60
2017-11-07T10:43:10.794Z,20.40
2017-11-07T10:45:38.414Z,19.23
2017-11-07T10:48:06.290Z,21.23
2017-11-07T10:50:33.935Z,18.90
2017-11-07T10:53:01.515Z,32.90
2017-11-07T10:55:29.115Z,23.57
2017-11-07T10:57:56.725Z,33.73
2017-11-07T11:00:26.110Z,21.10
2017-11-07T11:02:53.700Z,23.17
2017-11-07T11:05:21.334Z,29.97
2017-11-07T11:07:48.942Z,18.63
2017-11-07T11:10:16.578Z,17.53
2017-11-07T11:12:44.174Z,17.70
2017-11-07T11:15:11.758Z,17.63
2017-11-07T11:17:39.470Z,33.23
2017-11-07T11:20:07.827Z,30.30
2017-11-07T11:22:35.435Z,36.47
2017-11-07T11:25:03.038Z,21.20
2017-11-07T11:27:30.772Z,15.90
2017-11-07T11:29:58.391Z,20.07
2017-11-07T11:32:26.754Z,22.90
2017-11-07T11:34:54.328Z,18.70
2017-11-07T11:37:22.747Z,18.57
2017-11-07T11:39:50.336Z,17.37
2017-11-07T11:42:17.963Z,21.10
2017-11-07T11:44:45.547Z,20.10
2017-11-07T11:47:13.391Z,19.57
2017-11-07T11:49:41.031Z,15.13
2017-11-07T11:52:09.681Z,19.87
2017-11-07T11:54:37.297Z,23.40
2017-11-07T11:57:04.890Z,17.70
2017-11-07T11:59:32.474Z,18.43
2017-11-07T12:02:00.851Z,21.93
2017-11-07T12:04:28.443Z,18.87
2017-11-07T12:06:56.069Z,19.10
2017-11-07T12:09:23.685Z,16.53
2017-11-07T12:11:51.284Z,21.30
2017-11-07T12:14:18.866Z,17.57
2017-11-07T12:16:47.290Z,17.03
2017-11-07T12:19:14.893Z,16.90
2017-11-07T12:21:43.258Z,18.83
2017-11-07T12:24:10.846Z,16.83
2017-11-07T12:26:39.217Z,16.83
2017-11-07T12:29:06.855Z,22.73
2017-11-07T12:31:34.444Z,21.00
2017-11-07T12:34:02.852Z,19.90
2017-11-07T12:36:30.422Z,19.53
2017-11-07T12:38:58.021Z,17.77
2017-11-07T12:41:25.586Z,20.33
2017-11-07T12:43:53.536Z,20.37
2017-11-07T12:46:21.103Z,21.43
2017-11-07T12:48:48.698Z,15.03
2017-11-07T12:54:18.026Z,18.20
2017-11-07T12:56:45.614Z,15.87
2017-11-07T12:59:13.198Z,16.27
2017-11-07T13:01:40.797Z,18.73
2017-11-07T13:04:08.395Z,14.53
2017-11-07T13:06:36.058Z,17.30
2017-11-07T13:09:03.622Z,19.67
2017-11-07T13:11:31.304Z,18.67
2017-11-07T13:13:59.972Z,16.53
2017-11-07T13:16:27.552Z,17.40
2017-11-07T13:18:55.211Z,18.77
2017-11-07T13:21:22.819Z,18.60
2017-11-07T13:23:50.732Z,20.13
2017-11-07T13:26:18.330Z,19.63
2017-11-07T13:28:45.923Z,20.10
2017-11-07T13:31:13.522Z,17.70
2017-11-07T13:33:41.360Z,19.70
2017-11-07T13:36:09.006Z,17.80
2017-11-07T13:38:36.617Z,15.40
2017-11-07T13:41:05.003Z,20.20
2017-11-07T13:43:33.400Z,22.30
2017-11-07T13:46:00.978Z,16.10
2017-11-07T13:48:28.591Z,17.37
2017-11-07T13:50:56.957Z,15.23
2017-11-07T13:53:24.694Z,18.27
2017-11-07T13:55:52.313Z,16.03
2017-11-07T13:58:19.952Z,18.50
2017-11-07T14:00:48.346Z,20.00
2017-11-07T14:03:16.005Z,16.40
2017-11-07T14:05:44.390Z,15.90
2017-11-07T14:08:12.013Z,15.67
2017-11-07T14:10:40.331Z,26.60
2017-11-07T14:13:08.790Z,22.27
2017-11-07T14:15:37.360Z,20.00
2017-11-07T14:18:04.975Z,21.57
2017-11-07T14:20:32.718Z,25.93
2017-11-07T14:23:00.571Z,20.93
2017-11-07T14:25:28.941Z,15.20
2017-11-07T14:27:57.369Z,21.67
2017-11-07T14:30:24.983Z,21.73
2017-11-07T14:32:52.557Z,17.87
2017-11-07T14:35:20.472Z,23.20
2017-11-07T14:37:48.593Z,18.70
2017-11-07T14:40:17.002Z,18.40
2017-11-07T14:42:44.615Z,20.07
2017-11-07T14:45:12.967Z,20.37
2017-11-07T14:47:40.603Z,20.70
2017-11-07T14:50:08.183Z,22.23
2017-11-07T14:52:35.769Z,21.23
2017-11-07T14:55:03.411Z,18.20
2017-11-07T14:57:31.010Z,21.33
2017-11-07T14:59:59.401Z,21.77
2017-11-07T15:02:26.985Z,25.23
2017-11-07T15:04:54.672Z,19.93
2017-11-07T15:07:22.287Z,18.27
2017-11-07T15:09:49.853Z,21.20
2017-11-07T15:12:17.471Z,22.63
2017-11-07T15:14:45.279Z,20.70
2017-11-07T15:17:12.902Z,19.80
2017-11-07T15:19:40.477Z,18.57
2017-11-07T15:22:08.059Z,21.00
2017-11-07T15:24:35.716Z,21.13
2017-11-07T15:27:03.333Z,19.60
2017-11-07T15:29:30.944Z,22.20
2017-11-07T15:31:58.622Z,22.67
2017-11-07T15:34:26.268Z,20.93
2017-11-07T15:36:54.811Z,24.97
2017-11-07T15:39:23.170Z,20.13
2017-11-07T15:41:50.831Z,21.20
2017-11-07T15:44:18.458Z,22.20
2017-11-07T15:46:46.100Z,21.70
2017-11-07T15:49:13.741Z,22.90
2017-11-07T15:51:42.186Z,21.60
2017-11-07T15:54:10.152Z,23.70
2017-11-07T15:56:37.722Z,22.83
2017-11-07T15:59:05.406Z,26.63
2017-11-07T16:01:34.709Z,22.93
2017-11-07T16:04:02.378Z,30.87
2017-11-07T16:06:30.013Z,18.57
2017-11-07T16:08:57.660Z,21.90
2017-11-07T16:11:25.294Z,23.53
2017-11-07T16:13:53.908Z,26.00
2017-11-07T16:16:21.520Z,25.33
2017-11-07T16:18:49.157Z,23.03
2017-11-07T16:21:17.516Z,24.20
2017-11-07T16:23:45.130Z,25.77
2017-11-07T16:26:12.745Z,23.20
2017-11-07T16:28:41.291Z,24.43
2017-11-07T16:31:08.913Z,23.77
2017-11-07T16:33:37.347Z,24.50
2017-11-07T16:36:05.020Z,32.00
2017-11-07T16:38:32.645Z,20.43
2017-11-07T16:41:00.251Z,22.03
2017-11-07T16:43:28.660Z,20.80
2017-11-07T16:45:56.237Z,25.53
2017-11-07T16:48:23.827Z,21.87
2017-11-07T16:50:51.469Z,18.30
2017-11-07T16:53:19.257Z,22.60
2017-11-07T16:55:46.916Z,20.63
2017-11-07T16:58:14.494Z,22.87
2017-11-07T17:00:42.830Z,22.97
2017-11-07T17:03:10.482Z,24.73
2017-11-07T17:05:38.120Z,27.57
2017-11-07T17:08:05.733Z,20.07
2017-11-07T17:10:33.515Z,20.20
2017-11-07T17:13:01.885Z,19.30
2017-11-07T17:15:29.570Z,24.77
2017-11-07T17:17:57.260Z,23.53
2017-11-07T17:20:24.941Z,24.30
2017-11-07T17:22:52.586Z,22.20
2017-11-07T17:25:20.461Z,23.57
2017-11-07T17:27:48.117Z,22.50
2017-11-07T17:30:15.705Z,25.70
2017-11-07T17:32:43.305Z,22.83
2017-11-07T17:35:11.730Z,28.33
2017-11-07T17:37:39.357Z,26.53
2017-11-07T17:40:07.025Z,23.97
2017-11-07T17:42:34.617Z,26.40
2017-11-07T17:45:02.215Z,23.83
2017-11-07T17:47:29.854Z,23.80
2017-11-07T17:49:57.761Z,29.10
2017-11-07T17:52:25.376Z,33.63
2017-11-07T17:54:53.140Z,34.00
2017-11-07T17:57:21.725Z,28.20
2017-11-07T17:59:49.344Z,30.47
2017-11-07T18:02:16.961Z,25.70
2017-11-07T18:04:45.424Z,32.80
2017-11-07T18:07:13.657Z,33.77
2017-11-07T18:09:41.280Z,32.70
2017-11-07T18:12:08.896Z,36.60
2017-11-07T18:14:36.781Z,28.70
2017-11-07T18:17:04.465Z,34.20
2017-11-07T18:19:32.877Z,25.80
2017-11-07T18:22:00.523Z,30.03
2017-11-07T18:24:28.952Z,29.10
2017-11-07T18:26:56.652Z,27.43
2017-11-07T18:29:24.533Z,26.10
2017-11-07T18:31:52.608Z,36.70
2017-11-07T18:34:20.231Z,30.07
2017-11-07T18:36:47.963Z,27.30
2017-11-07T18:39:15.590Z,30.13
2017-11-07T18:41:43.193Z,30.07
2017-11-07T18:44:10.826Z,28.77
2017-11-07T18:46:38.504Z,30.27
2017-11-07T18:49:07.257Z,31.03
2017-11-07T18:51:34.847Z,29.50
2017-11-07T18:54:02.501Z,32.57
2017-11-07T18:56:30.248Z,33.70
2017-11-07T18:58:57.933Z,33.13
2017-11-07T19:01:25.804Z,33.60
2017-11-07T19:03:53.465Z,33.43
2017-11-07T19:06:21.047Z,33.23
2017-11-07T19:08:48.727Z,38.23
2017-11-07T19:11:16.365Z,36.93
2017-11-07T19:13:44.034Z,32.67
2017-11-07T19:16:11.641Z,31.80
2017-11-07T19:18:39.523Z,30.20
2017-11-07T19:21:07.133Z,34.70
2017-11-07T19:23:34.756Z,28.67
2017-11-07T19:26:02.360Z,32.03
2017-11-07T19:28:30.742Z,31.00
2017-11-07T19:30:59.208Z,32.97
2017-11-07T19:33:27.089Z,32.93
2017-11-07T19:35:55.956Z,29.63
2017-11-07T19:38:23.608Z,34.37
2017-11-07T19:40:51.246Z,35.30
2017-11-07T19:43:20.271Z,47.53
2017-11-07T19:45:47.888Z,35.57
2017-11-07T19:48:15.521Z,38.37
2017-11-07T19:50:43.964Z,33.70
2017-11-07T19:53:11.905Z,30.30
2017-11-07T19:55:39.581Z,35.93
2017-11-07T19:58:07.305Z,41.47
2017-11-07T20:00:35.121Z,33.63
2017-11-07T20:03:02.867Z,32.27
2017-11-07T20:05:30.527Z,31.00
2017-11-07T20:07:58.148Z,38.83
2017-11-07T20:10:26.075Z,39.23
2017-11-07T20:12:53.690Z,32.07
2017-11-07T20:15:21.389Z,33.40
2017-11-07T20:17:49.288Z,35.57
2017-11-07T20:20:16.914Z,32.87
2017-11-07T20:22:44.784Z,36.00
2017-11-07T20:25:12.474Z,40.63
2017-11-07T20:27:40.081Z,38.20
2017-11-07T20:30:10.537Z,46.40
2017-11-07T20:32:38.127Z,38.33
2017-11-07T20:37:33.261Z,37.60
2017-11-07T20:40:01.609Z,37.17
2017-11-07T20:42:29.670Z,38.67
2017-11-07T20:44:57.584Z,43.17
2017-11-07T20:47:25.207Z,42.57
2017-11-07T20:49:52.925Z,41.53
2017-11-07T20:52:20.543Z,37.50
2017-11-07T20:54:49.201Z,42.83
2017-11-07T20:57:16.883Z,38.97
2017-11-07T20:59:44.506Z,41.37
2017-11-07T21:02:12.964Z,33.63
2017-11-07T21:04:40.581Z,40.30
2017-11-07T21:07:08.895Z,44.40
2017-11-07T21:09:36.507Z,33.47
2017-11-07T21:12:04.111Z,36.17
2017-11-07T21:14:31.755Z,36.77
2017-11-07T21:17:00.318Z,38.63
2017-11-07T21:19:32.771Z,47.77
2017-11-07T21:22:00.391Z,51.33
2017-11-07T21:24:28.029Z,47.33
2017-11-07T21:26:56.472Z,43.73
2017-11-07T21:29:24.082Z,50.03
2017-11-07T21:31:52.587Z,39.03
2017-11-07T21:34:22.951Z,42.70
2017-11-07T21:36:50.525Z,45.00
2017-11-07T21:39:18.536Z,42.83
2017-11-07T21:41:46.170Z,58.47
2017-11-07T21:44:14.535Z,48.20
2017-11-07T21:46:42.646Z,57.83
2017-11-07T21:49:10.733Z,49.67
2017-11-07T21:51:38.324Z,63.17
2017-11-07T21:54:05.938Z,66.33
2017-11-07T21:56:33.562Z,56.47
2017-11-07T21:59:01.917Z,65.27
2017-11-07T22:01:29.532Z,65.30
2017-11-07T22:03:57.279Z,69.20
2017-11-07T22:06:25.634Z,68.53
2017-11-07T22:08:54.142Z,67.70
2017-11-07T22:11:21.754Z,63.37
2017-11-07T22:13:49.364Z,58.60
2017-11-07T22:16:17.065Z,56.07
2017-11-07T22:18:44.710Z,57.73
2017-11-07T22:21:12.365Z,52.00
2017-11-07T22:23:41.714Z,55.30
2017-11-07T22:26:09.346Z,52.00
2017-11-07T22:28:36.945Z,59.00
2017-11-07T22:31:05.684Z,50.33
2017-11-07T22:33:33.272Z,49.53
2017-11-07T22:36:00.889Z,34.67
2017-11-07T22:38:28.538Z,33.43
2017-11-07T22:40:56.165Z,31.13
2017-11-07T22:43:23.827Z,33.37
2017-11-07T22:45:51.442Z,55.40
2017-11-07T22:48:19.101Z,54.73
2017-11-07T22:50:46.725Z,49.67
2017-11-07T22:53:15.263Z,52.47
2017-11-07T22:55:42.880Z,59.87
2017-11-07T22:58:10.513Z,56.27
2017-11-07T23:00:38.102Z,53.03
2017-11-07T23:03:05.704Z,64.30
2017-11-07T23:05:33.298Z,50.50
2017-11-07T23:08:00.898Z,61.10
2017-11-07T23:10:28.505Z,47.87
2017-11-07T23:12:59.006Z,55.47
2017-11-07T23:15:26.636Z,54.80
2017-11-07T23:17:54.249Z,63.83
2017-11-07T23:20:21.869Z,55.83
2017-11-07T23:22:49.499Z,49.97
2017-11-07T23:25:18.193Z,48.87
2017-11-07T23:27:46.552Z,56.20
2017-11-07T23:30:14.247Z,56.03
2017-11-07T23:32:41.865Z,59.87
2017-11-07T23:35:09.471Z,65.63
2017-11-07T23:37:37.082Z,51.37
2017-11-07T23:40:04.681Z,50.80
2017-11-07T23:42:33.514Z,46.90
2017-11-07T23:45:01.105Z,48.87
2017-11-07T23:47:28.686Z,47.17
2017-11-07T23:49:56.282Z,48.83
2017-11-07T23:52:23.885Z,50.50
2017-11-07T23:54:51.489Z,48.80
2017-11-07T23:57:19.113Z,41.57
2017-11-07T23:59:47.477Z,46.73
